createdAt,value
2019-04-03T00:01:24.828Z,98560.81
2019-04-03T00:04:29.910Z,98565.91
2019-04-03T00:07:35.995Z,98558.57
2019-04-03T00:10:41.384Z,98550.80
2019-04-03T00:13:46.549Z,98549.61
2019-04-03T00:16:51.888Z,98546.91
2019-04-03T00:19:57.028Z,98549.83
2019-04-03T00:23:02.180Z,98546.08
2019-04-03T00:26:07.378Z,98536.91
2019-04-03T00:29:12.532Z,98531.69
2019-04-03T00:32:17.907Z,98534.04
2019-04-03T00:35:23.594Z,98530.94
2019-04-03T00:38:29.191Z,98526.20
2019-04-03T00:41:34.407Z,98520.79
2019-04-03T00:44:39.553Z,98512.63
2019-04-03T00:47:44.677Z,98507.45
2019-04-03T00:50:49.898Z,98507.70
2019-04-03T00:53:57.207Z,98503.30
2019-04-03T00:57:02.147Z,98495.72
2019-04-03T01:00:12.483Z,98491.58
2019-04-03T01:03:17.929Z,98478.75
2019-04-03T01:06:23.091Z,98476.47
2019-04-03T01:09:29.789Z,98473.92
2019-04-03T01:12:35.313Z,98469.52
2019-04-03T01:15:40.612Z,98474.31
2019-04-03T01:18:45.813Z,98476.02
2019-04-03T01:21:51.039Z,98462.14
2019-04-03T01:24:56.232Z,98458.81
2019-04-03T01:28:01.313Z,98455.61
2019-04-03T01:31:06.476Z,98438.55
2019-04-03T01:34:11.770Z,98439.14
2019-04-03T01:37:18.991Z,98428.62
2019-04-03T01:40:23.942Z,98425.43
2019-04-03T01:43:29.085Z,98420.12
2019-04-03T01:46:34.340Z,98413.06
2019-04-03T01:49:39.868Z,98408.58
2019-04-03T01:52:45.049Z,98409.48
2019-04-03T01:55:50.210Z,98416.42
2019-04-03T01:58:55.308Z,98406.87
2019-04-03T02:02:00.458Z,98410.83
2019-04-03T02:05:06.306Z,98410.05
2019-04-03T02:08:14.243Z,98419.46
2019-04-03T02:11:19.105Z,98414.61
2019-04-03T02:14:24.492Z,98411.64
2019-04-03T02:17:29.652Z,98404.36
2019-04-03T02:20:35.135Z,98407.27
2019-04-03T02:23:40.360Z,98407.80
2019-04-03T02:26:45.506Z,98401.88
2019-04-03T02:29:50.729Z,98411.02
2019-04-03T02:32:57.503Z,98412.75
2019-04-03T02:36:02.984Z,98416.11
2019-04-03T02:39:09.343Z,98406.94
2019-04-03T02:42:14.827Z,98415.50
2019-04-03T02:45:23.061Z,98413.02
2019-04-03T02:48:27.202Z,98407.45
2019-04-03T02:51:32.729Z,98405.02
2019-04-03T02:54:41.481Z,98403.40
2019-04-03T02:57:49.027Z,98402.56
2019-04-03T03:00:53.635Z,98398.75
2019-04-03T03:03:58.836Z,98406.06
2019-04-03T03:07:05.234Z,98407.32
2019-04-03T03:10:10.944Z,98412.53
2019-04-03T03:13:16.772Z,98410.92
2019-04-03T03:16:22.589Z,98417.63
2019-04-03T03:19:31.760Z,98419.45
2019-04-03T03:22:37.789Z,98418.31
2019-04-03T03:25:44.587Z,98411.78
2019-04-03T03:28:50.231Z,98417.30
2019-04-03T03:32:08.833Z,98421.52
2019-04-03T03:35:12.724Z,98417.23
2019-04-03T03:38:10.777Z,98423.14
2019-04-03T03:41:16.803Z,98413.84
2019-04-03T03:44:24.082Z,98409.69
2019-04-03T03:47:32.021Z,98404.97
2019-04-03T03:50:38.163Z,98411.17
2019-04-03T03:53:45.474Z,98406.63
2019-04-03T03:56:52.190Z,98411.11
2019-04-03T03:59:57.336Z,98405.68
2019-04-03T04:03:03.393Z,98405.17
2019-04-03T04:06:09.075Z,98403.16
2019-04-03T04:09:17.492Z,98406.35
2019-04-03T04:12:21.221Z,98406.38
2019-04-03T04:15:29.932Z,98407.16
2019-04-03T04:18:33.523Z,98404.66
2019-04-03T04:21:42.981Z,98398.46
2019-04-03T04:24:46.038Z,98405.84
2019-04-03T04:27:52.571Z,98419.14
2019-04-03T04:30:57.701Z,98411.30
2019-04-03T04:34:02.981Z,98414.95
2019-04-03T04:37:08.086Z,98420.27
2019-04-03T04:40:14.312Z,98423.96
2019-04-03T04:43:19.412Z,98416.66
2019-04-03T04:46:24.678Z,98420.00
2019-04-03T04:49:29.935Z,98424.43
2019-04-03T04:52:35.121Z,98422.11
2019-04-03T04:55:40.271Z,98421.22
2019-04-03T04:58:45.342Z,98419.83
2019-04-03T05:01:50.538Z,98417.14
2019-04-03T05:04:56.556Z,98422.91
2019-04-03T05:08:02.617Z,98426.06
2019-04-03T05:11:08.198Z,98433.75
2019-04-03T05:14:13.260Z,98433.25
2019-04-03T05:17:18.397Z,98436.94
2019-04-03T05:20:23.626Z,98440.70
2019-04-03T05:23:28.762Z,98446.58
2019-04-03T05:26:35.237Z,98447.93
2019-04-03T05:29:40.380Z,98454.41
2019-04-03T05:32:45.511Z,98450.31
2019-04-03T05:35:50.625Z,98457.27
2019-04-03T05:38:55.761Z,98452.25
2019-04-03T05:42:01.111Z,98456.05
2019-04-03T05:45:06.859Z,98450.22
2019-04-03T05:48:13.543Z,98450.05
2019-04-03T05:51:19.105Z,98454.30
2019-04-03T05:54:24.385Z,98447.03
2019-04-03T05:57:30.721Z,98445.77
2019-04-03T06:00:37.518Z,98449.47
2019-04-03T06:03:45.620Z,98443.89
2019-04-03T06:06:49.659Z,98441.88
2019-04-03T06:09:58.277Z,98432.81
2019-04-03T06:13:01.625Z,98436.17
2019-04-03T06:16:07.023Z,98433.13
2019-04-03T06:19:12.375Z,98431.23
2019-04-03T06:22:21.072Z,98436.42
2019-04-03T06:25:24.283Z,98431.58
2019-04-03T06:28:29.401Z,98430.31
2019-04-03T06:31:34.528Z,98429.70
2019-04-03T06:34:42.446Z,98434.16
2019-04-03T06:37:47.634Z,98431.73
2019-04-03T06:40:52.931Z,98434.66
2019-04-03T06:43:58.183Z,98412.12
2019-04-03T06:47:03.374Z,98409.96
2019-04-03T06:50:08.708Z,98408.31
2019-04-03T06:53:13.970Z,98416.09
2019-04-03T06:56:19.281Z,98411.20
2019-04-03T06:59:24.420Z,98414.99
2019-04-03T07:02:32.027Z,98409.39
2019-04-03T07:05:36.525Z,98404.73
2019-04-03T07:08:41.692Z,98388.45
2019-04-03T07:11:46.872Z,98393.72
2019-04-03T07:14:52.166Z,98392.63
2019-04-03T07:17:57.355Z,98384.11
2019-04-03T07:21:02.667Z,98384.25
2019-04-03T07:24:08.878Z,98392.09
2019-04-03T07:27:15.147Z,98390.31
2019-04-03T07:30:21.747Z,98397.08
2019-04-03T07:33:28.647Z,98403.38
2019-04-03T07:36:34.543Z,98399.14
2019-04-03T07:39:39.627Z,98393.67
2019-04-03T07:42:44.769Z,98388.66
2019-04-03T07:45:50.057Z,98403.12
2019-04-03T07:48:55.245Z,98398.44
2019-04-03T07:52:00.506Z,98398.96
2019-04-03T07:55:06.494Z,98396.87
2019-04-03T07:58:11.605Z,98393.84
2019-04-03T08:01:18.769Z,98394.47
2019-04-03T08:04:25.242Z,98391.25
2019-04-03T08:07:32.695Z,98391.29
2019-04-03T08:10:38.913Z,98394.31
2019-04-03T08:13:44.112Z,98390.30
2019-04-03T08:16:49.302Z,98390.51
2019-04-03T08:19:55.259Z,98387.36
2019-04-03T08:23:00.443Z,98382.74
2019-04-03T08:26:05.578Z,98388.58
2019-04-03T08:29:12.072Z,98385.03
2019-04-03T08:32:17.382Z,98382.56
2019-04-03T08:35:23.735Z,98384.28
2019-04-03T08:38:29.643Z,98377.03
2019-04-03T08:41:36.919Z,98375.93
2019-04-03T08:44:41.682Z,98369.20
2019-04-03T08:47:46.974Z,98366.99
2019-04-03T08:50:52.231Z,98371.66
2019-04-03T08:53:57.420Z,98372.94
2019-04-03T08:57:02.633Z,98377.81
2019-04-03T09:00:08.807Z,98377.73
2019-04-03T09:03:14.561Z,98380.02
2019-04-03T09:06:22.157Z,98376.98
2019-04-03T09:09:29.911Z,98376.84
2019-04-03T09:12:34.242Z,98378.55
2019-04-03T09:15:39.607Z,98372.45
2019-04-03T09:18:44.733Z,98377.16
2019-04-03T09:21:51.114Z,98372.88
2019-04-03T09:24:56.726Z,98373.16
2019-04-03T09:28:01.873Z,98370.72
2019-04-03T09:31:06.965Z,98371.42
2019-04-03T09:34:12.221Z,98372.03
2019-04-03T09:37:18.341Z,98370.70
2019-04-03T09:40:23.770Z,98371.16
2019-04-03T09:43:28.948Z,98371.02
2019-04-03T09:46:34.085Z,98366.70
2019-04-03T09:49:42.268Z,98369.03
2019-04-03T09:52:49.451Z,98362.70
2019-04-03T09:55:52.885Z,98368.94
2019-04-03T09:58:58.133Z,98359.99
2019-04-03T10:02:03.496Z,98355.13
2019-04-03T10:05:09.098Z,98360.02
2019-04-03T10:08:14.277Z,98359.21
2019-04-03T10:11:20.796Z,98352.41
2019-04-03T10:14:28.139Z,98348.66
2019-04-03T10:17:33.067Z,98350.80
2019-04-03T10:20:38.366Z,98343.77
2019-04-03T10:23:43.580Z,98341.28
2019-04-03T10:26:48.718Z,98332.61
2019-04-03T10:29:55.803Z,98323.71
2019-04-03T10:33:01.056Z,98323.14
2019-04-03T10:36:06.915Z,98318.78
2019-04-03T10:39:14.501Z,98317.45
2019-04-03T10:42:19.644Z,98315.06
2019-04-03T10:45:25.140Z,98311.78
2019-04-03T10:48:30.358Z,98303.07
2019-04-03T10:51:35.582Z,98309.35
2019-04-03T10:54:40.886Z,98296.14
2019-04-03T10:57:46.098Z,98289.26
2019-04-03T11:00:51.385Z,98284.95
2019-04-03T11:03:56.584Z,98280.41
2019-04-03T11:07:01.743Z,98274.23
2019-04-03T11:10:08.687Z,98270.19
2019-04-03T11:13:13.983Z,98266.13
2019-04-03T11:16:19.167Z,98266.45
2019-04-03T11:19:24.387Z,98255.66
2019-04-03T11:22:41.048Z,98253.52
2019-04-03T11:25:40.927Z,98261.58
2019-04-03T11:28:44.788Z,98241.60
2019-04-03T11:31:50.012Z,98239.87
2019-04-03T11:34:55.319Z,98233.83
2019-04-03T11:38:12.064Z,98232.28
2019-04-03T11:41:14.530Z,98228.64
2019-04-03T11:44:14.427Z,98223.73
2019-04-03T11:47:20.271Z,98220.95
2019-04-03T11:50:25.877Z,98222.96
2019-04-03T11:53:30.976Z,98213.64
2019-04-03T11:56:36.231Z,98206.38
2019-04-03T11:59:41.414Z,98192.81
2019-04-03T12:02:46.591Z,98193.61
2019-04-03T12:05:51.925Z,98184.08
2019-04-03T12:08:59.318Z,98177.16
2019-04-03T12:12:04.538Z,98183.44
2019-04-03T12:15:11.119Z,98180.19
2019-04-03T12:18:16.360Z,98175.92
2019-04-03T12:21:21.557Z,98172.05
2019-04-03T12:24:26.783Z,98169.50
2019-04-03T12:27:32.122Z,98172.07
2019-04-03T12:30:37.285Z,98175.59
2019-04-03T12:33:51.999Z,98170.16
2019-04-03T12:36:49.450Z,98168.27
2019-04-03T12:39:54.701Z,98171.69
2019-04-03T12:43:00.045Z,98161.34
2019-04-03T12:46:05.330Z,98146.76
2019-04-03T12:49:10.719Z,98150.56
2019-04-03T12:52:16.338Z,98146.52
2019-04-03T12:55:22.963Z,98151.05
2019-04-03T12:58:28.368Z,98145.09
2019-04-03T13:01:33.623Z,98139.23
2019-04-03T13:04:38.803Z,98129.30
2019-04-03T13:07:45.959Z,98124.94
2019-04-03T13:10:51.250Z,98117.94
2019-04-03T13:13:57.273Z,98114.84
2019-04-03T13:17:03.837Z,98121.30
2019-04-03T13:20:10.226Z,98108.73
2019-04-03T13:23:16.601Z,98115.35
2019-04-03T13:26:24.082Z,98112.67
2019-04-03T13:29:28.710Z,98104.91
2019-04-03T13:32:34.024Z,98091.74
2019-04-03T13:35:39.217Z,98090.84
2019-04-03T13:38:44.466Z,98099.36
2019-04-03T13:41:49.683Z,98090.53
2019-04-03T13:44:57.963Z,98086.27
2019-04-03T13:48:02.186Z,98094.52
2019-04-03T13:51:07.372Z,98082.45
2019-04-03T13:54:12.704Z,98085.61
2019-04-03T13:57:18.288Z,98080.76
2019-04-03T14:00:24.852Z,98065.86
2019-04-03T14:03:30.247Z,98056.10
2019-04-03T14:06:36.290Z,98044.85
2019-04-03T14:09:42.302Z,98036.83
2019-04-03T14:12:47.496Z,98035.62
2019-04-03T14:15:54.747Z,98020.92
2019-04-03T14:18:59.869Z,98015.32
2019-04-03T14:22:05.554Z,98011.05
2019-04-03T14:25:19.945Z,98010.60
2019-04-03T14:28:17.891Z,98019.67
2019-04-03T14:31:33.365Z,98010.50
2019-04-03T14:34:30.673Z,98000.51
2019-04-03T14:37:36.424Z,97999.74
2019-04-03T14:40:43.494Z,97990.55
2019-04-03T14:43:48.556Z,97982.13
2019-04-03T14:46:53.786Z,97986.95
2019-04-03T14:49:59.151Z,97991.55
2019-04-03T14:53:04.777Z,98002.50
2019-04-03T14:56:10.549Z,97991.28
2019-04-03T14:59:15.867Z,97993.58
2019-04-03T15:02:23.669Z,97979.63
2019-04-03T15:05:28.077Z,97977.57
2019-04-03T15:08:33.669Z,97974.80
2019-04-03T15:11:39.265Z,97947.62
2019-04-03T15:14:44.387Z,97947.42
2019-04-03T15:17:49.856Z,97961.70
2019-04-03T15:20:55.004Z,97947.42
2019-04-03T15:24:00.211Z,97938.84
2019-04-03T15:27:06.671Z,97935.66
2019-04-03T15:30:12.722Z,97939.73
2019-04-03T15:33:18.376Z,97932.60
2019-04-03T15:36:24.034Z,97929.80
2019-04-03T15:39:29.244Z,97923.45
2019-04-03T15:42:34.713Z,97926.00
2019-04-03T15:45:40.062Z,97914.14
2019-04-03T15:48:45.511Z,97915.80
2019-04-03T15:51:50.780Z,97919.31
2019-04-03T15:54:55.959Z,97926.58
2019-04-03T15:58:01.193Z,97922.40
2019-04-03T16:01:08.442Z,97912.09
2019-04-03T16:04:13.918Z,97913.09
2019-04-03T16:07:19.419Z,97916.37
2019-04-03T16:10:25.144Z,97893.04
2019-04-03T16:13:30.675Z,97882.54
2019-04-03T16:16:36.006Z,97873.03
2019-04-03T16:19:43.359Z,97875.41
2019-04-03T16:22:48.287Z,97878.31
2019-04-03T16:25:53.495Z,97877.48
2019-04-03T16:28:58.737Z,97885.61
2019-04-03T16:32:04.098Z,97873.29
2019-04-03T16:35:12.697Z,97870.27
2019-04-03T16:38:16.322Z,97883.26
2019-04-03T16:41:21.542Z,97881.91
2019-04-03T16:44:27.463Z,97889.31
2019-04-03T16:47:32.815Z,97894.30
2019-04-03T16:50:38.081Z,97896.73
2019-04-03T16:53:43.552Z,97884.32
2019-04-03T16:56:50.036Z,97897.02
2019-04-03T16:59:55.446Z,97908.08
2019-04-03T17:03:06.043Z,97927.50
2019-04-03T17:06:16.293Z,97933.94
2019-04-03T17:09:20.754Z,97944.77
2019-04-03T17:12:26.024Z,98010.31
2019-04-03T17:15:32.235Z,98013.83
2019-04-03T17:18:38.204Z,98000.19
2019-04-03T17:21:44.467Z,97972.29
2019-04-03T17:24:53.977Z,97985.48
2019-04-03T17:27:58.802Z,98001.25
2019-04-03T17:31:04.493Z,98019.39
2019-04-03T17:34:09.944Z,98011.42
2019-04-03T17:37:15.248Z,98016.63
2019-04-03T17:40:20.393Z,98021.59
2019-04-03T17:43:25.525Z,98034.95
2019-04-03T17:46:30.715Z,98045.03
2019-04-03T17:49:35.987Z,98041.45
2019-04-03T17:52:41.364Z,98024.25
2019-04-03T17:55:46.482Z,98055.08
2019-04-03T17:58:51.644Z,98041.77
2019-04-03T18:01:56.868Z,98045.91
2019-04-03T18:05:02.203Z,98057.05
2019-04-03T18:08:07.378Z,98065.30
2019-04-03T18:11:13.312Z,98081.73
2019-04-03T18:14:19.066Z,98075.34
2019-04-03T18:17:24.325Z,98072.34
2019-04-03T18:20:29.534Z,98067.36
2019-04-03T18:23:34.788Z,98079.89
2019-04-03T18:26:40.018Z,98089.42
2019-04-03T18:29:45.270Z,98101.76
2019-04-03T18:32:50.432Z,98104.44
2019-04-03T18:35:56.817Z,98126.22
2019-04-03T18:39:02.362Z,98134.31
2019-04-03T18:42:08.889Z,98129.83
2019-04-03T18:45:24.556Z,98141.87
2019-04-03T18:48:21.521Z,98136.19
2019-04-03T18:51:26.795Z,98136.92
2019-04-03T18:54:32.012Z,98142.75
2019-04-03T18:57:37.207Z,98145.16
2019-04-03T19:00:42.403Z,98150.33
2019-04-03T19:03:47.682Z,98154.92
2019-04-03T19:06:52.821Z,98153.87
2019-04-03T19:10:06.945Z,98153.58
2019-04-03T19:13:05.235Z,98140.53
2019-04-03T19:16:10.578Z,98126.14
2019-04-03T19:19:16.523Z,98121.66
2019-04-03T19:22:21.934Z,98117.52
2019-04-03T19:25:29.408Z,98102.80
2019-04-03T19:28:34.623Z,98097.65
2019-04-03T19:31:40.790Z,98091.83
2019-04-03T19:34:46.209Z,98086.14
2019-04-03T19:37:51.413Z,98104.01
2019-04-03T19:40:56.677Z,98098.87
2019-04-03T19:44:02.071Z,98105.63
2019-04-03T19:47:08.379Z,98105.01
2019-04-03T19:50:13.579Z,98098.41
2019-04-03T19:53:19.661Z,98085.86
2019-04-03T19:56:25.945Z,98087.48
2019-04-03T19:59:34.610Z,98116.44
2019-04-03T20:02:42.726Z,98139.74
2019-04-03T20:05:50.091Z,98136.39
2019-04-03T20:08:53.634Z,98117.00
2019-04-03T20:11:58.892Z,98104.39
2019-04-03T20:15:04.184Z,98100.25
2019-04-03T20:18:09.445Z,98118.17
2019-04-03T20:21:15.270Z,98129.82
2019-04-03T20:24:20.582Z,98128.36
2019-04-03T20:27:25.800Z,98131.16
2019-04-03T20:30:32.819Z,98130.16
2019-04-03T20:33:37.879Z,98119.52
2019-04-03T20:36:43.085Z,98132.33
2019-04-03T20:39:48.298Z,98137.00
2019-04-03T20:42:53.580Z,98126.48
2019-04-03T20:45:58.741Z,98112.91
2019-04-03T20:49:03.915Z,98116.18
2019-04-03T20:52:11.473Z,98119.78
2019-04-03T20:55:16.108Z,98134.23
2019-04-03T20:58:21.315Z,98144.11
2019-04-03T21:01:26.492Z,98157.34
2019-04-03T21:04:31.770Z,98145.89
2019-04-03T21:07:37.205Z,98133.78
2019-04-03T21:10:42.511Z,98123.34
2019-04-03T21:13:47.671Z,98131.05
2019-04-03T21:16:52.756Z,98138.87
2019-04-03T21:19:57.994Z,98140.92
2019-04-03T21:23:03.826Z,98142.48
2019-04-03T21:26:09.183Z,98136.73
2019-04-03T21:29:16.609Z,98121.45
2019-04-03T21:32:21.319Z,98119.47
2019-04-03T21:35:26.588Z,98132.06
2019-04-03T21:38:31.750Z,98143.97
2019-04-03T21:41:36.951Z,98125.95
2019-04-03T21:44:42.247Z,98112.96
2019-04-03T21:47:47.429Z,98105.08
2019-04-03T21:50:53.730Z,98104.22
2019-04-03T21:53:58.972Z,98108.89
2019-04-03T21:57:06.276Z,98108.23
2019-04-03T22:00:14.619Z,98102.25
2019-04-03T22:03:21.443Z,98107.41
2019-04-03T22:06:27.733Z,98123.88
2019-04-03T22:09:33.157Z,98120.47
2019-04-03T22:12:38.393Z,98143.16
2019-04-03T22:15:45.617Z,98144.08
2019-04-03T22:18:51.009Z,98146.19
2019-04-03T22:21:57.351Z,98157.17
2019-04-03T22:25:02.631Z,98163.58
2019-04-03T22:28:07.837Z,98160.44
2019-04-03T22:31:12.920Z,98140.86
2019-04-03T22:34:18.142Z,98142.06
2019-04-03T22:37:23.367Z,98150.69
2019-04-03T22:40:28.583Z,98141.39
2019-04-03T22:43:33.766Z,98143.29
2019-04-03T22:46:38.898Z,98148.70
2019-04-03T22:49:44.112Z,98145.89
2019-04-03T22:52:49.360Z,98150.09
2019-04-03T22:55:54.523Z,98160.12
2019-04-03T22:58:59.708Z,98142.86
2019-04-03T23:02:04.875Z,98139.41
2019-04-03T23:05:10.125Z,98131.16
2019-04-03T23:08:15.242Z,98133.69
2019-04-03T23:11:20.582Z,98147.00
2019-04-03T23:14:25.825Z,98178.85
2019-04-03T23:17:31.106Z,98165.34
2019-04-03T23:20:36.387Z,98163.47
2019-04-03T23:23:41.654Z,98159.45
2019-04-03T23:26:46.878Z,98138.73
2019-04-03T23:29:52.170Z,98138.20
2019-04-03T23:32:57.568Z,98145.16
2019-04-03T23:36:02.790Z,98152.09
2019-04-03T23:39:09.319Z,98145.61
2019-04-03T23:42:14.578Z,98151.39
2019-04-03T23:45:20.535Z,98153.39
2019-04-03T23:48:25.772Z,98151.91
2019-04-03T23:51:30.918Z,98144.41
2019-04-03T23:54:36.195Z,98135.11
2019-04-03T23:57:41.384Z,98134.06
